createdAt,value
2022-11-30T00:01:19.263Z,3.87
2022-11-30T00:03:49.072Z,4.07
2022-11-30T00:06:22.868Z,4.20
2022-11-30T00:08:52.373Z,4.30
2022-11-30T00:11:20.868Z,4.23
2022-11-30T00:13:48.132Z,4.70
2022-11-30T00:16:14.951Z,4.23
2022-11-30T00:18:41.865Z,4.93
2022-11-30T00:21:14.429Z,4.57
2022-11-30T00:23:43.486Z,5.40
2022-11-30T00:26:13.013Z,4.60
2022-11-30T00:28:44.141Z,4.93
2022-11-30T00:31:16.169Z,4.80
2022-11-30T00:33:45.893Z,5.33
2022-11-30T00:36:18.592Z,7.37
2022-11-30T00:38:46.305Z,5.13
2022-11-30T00:41:13.653Z,5.20
2022-11-30T00:43:40.440Z,5.53
2022-11-30T00:46:11.179Z,5.73
2022-11-30T00:48:39.362Z,6.13
2022-11-30T00:51:07.039Z,5.83
2022-11-30T00:53:36.079Z,6.07
2022-11-30T00:56:05.445Z,6.00
2022-11-30T00:58:32.166Z,6.03
2022-11-30T01:01:01.314Z,7.17
2022-11-30T01:03:28.129Z,6.20
2022-11-30T01:05:54.816Z,6.83
2022-11-30T01:08:21.440Z,6.23
2022-11-30T01:10:53.714Z,7.03
2022-11-30T01:13:22.771Z,6.57
2022-11-30T01:15:49.625Z,8.10
2022-11-30T01:18:18.830Z,7.23
2022-11-30T01:20:45.531Z,6.70
2022-11-30T01:23:12.277Z,7.30
2022-11-30T01:25:41.720Z,7.13
2022-11-30T01:28:12.713Z,8.13
2022-11-30T01:30:39.496Z,6.70
2022-11-30T01:33:08.408Z,6.30
2022-11-30T01:35:35.024Z,7.33
2022-11-30T01:38:06.598Z,6.70
2022-11-30T01:40:35.556Z,6.60
2022-11-30T01:43:02.205Z,7.23
2022-11-30T01:45:29.372Z,6.87
2022-11-30T01:47:57.743Z,6.03
2022-11-30T01:50:28.612Z,6.53
2022-11-30T01:52:57.518Z,7.32
2022-11-30T01:55:39.700Z,6.87
2022-11-30T01:58:13.734Z,7.00
2022-11-30T02:00:43.593Z,6.20
2022-11-30T02:03:34.987Z,7.10
2022-11-30T02:06:06.701Z,6.90
2022-11-30T02:08:36.233Z,6.30
2022-11-30T02:11:05.791Z,6.97
2022-11-30T02:14:01.629Z,8.83
2022-11-30T02:16:46.283Z,6.50
2022-11-30T02:19:33.977Z,7.07
2022-11-30T02:22:17.470Z,7.50
2022-11-30T02:24:58.740Z,7.37
2022-11-30T02:27:31.574Z,6.13
2022-11-30T02:30:20.513Z,6.77
2022-11-30T02:33:11.639Z,6.50
2022-11-30T02:35:50.249Z,6.97
2022-11-30T02:38:22.647Z,6.17
2022-11-30T02:40:49.588Z,6.53
2022-11-30T02:43:17.417Z,6.10
2022-11-30T02:45:56.617Z,6.00
2022-11-30T02:48:34.782Z,6.00
2022-11-30T02:51:06.636Z,5.63
2022-11-30T02:53:36.055Z,6.47
2022-11-30T02:56:05.325Z,5.77
2022-11-30T02:58:34.443Z,5.30
2022-11-30T03:01:03.319Z,5.60
2022-11-30T03:03:29.987Z,5.13
2022-11-30T03:05:59.164Z,5.73
2022-11-30T03:08:25.835Z,5.90
2022-11-30T03:10:52.570Z,5.20
2022-11-30T03:13:19.231Z,5.50
2022-11-30T03:15:48.357Z,5.13
2022-11-30T03:18:15.062Z,4.47
2022-11-30T03:20:42.634Z,4.97
2022-11-30T03:23:11.609Z,5.00
2022-11-30T03:25:40.453Z,4.50
2022-11-30T03:28:07.137Z,4.70
2022-11-30T03:30:38.482Z,4.77
2022-11-30T03:33:05.230Z,4.75
2022-11-30T03:35:31.886Z,5.53
2022-11-30T03:37:58.548Z,3.80
2022-11-30T03:40:25.207Z,3.60
2022-11-30T03:42:51.867Z,4.07
2022-11-30T03:45:18.517Z,4.63
2022-11-30T03:47:45.125Z,4.40
2022-11-30T03:50:11.821Z,4.13
2022-11-30T03:52:40.774Z,4.00
2022-11-30T03:55:08.051Z,4.37
2022-11-30T03:57:34.749Z,4.67
2022-11-30T04:00:08.226Z,3.90
2022-11-30T04:02:37.929Z,4.55
2022-11-30T04:05:07.200Z,3.97
2022-11-30T04:07:33.957Z,4.60
2022-11-30T04:10:05.253Z,4.07
2022-11-30T04:12:34.812Z,4.27
2022-11-30T04:15:01.445Z,4.23
2022-11-30T04:17:28.105Z,4.57
2022-11-30T04:19:54.799Z,4.65
2022-11-30T04:22:21.441Z,5.10
2022-11-30T04:24:48.280Z,3.57
2022-11-30T04:27:17.342Z,5.87
2022-11-30T04:29:44.110Z,4.33
2022-11-30T04:32:10.733Z,4.60
2022-11-30T04:34:37.392Z,5.47
2022-11-30T04:37:04.056Z,5.90
2022-11-30T04:39:35.622Z,4.90
2022-11-30T04:42:02.376Z,5.57
2022-11-30T04:44:28.998Z,5.27
2022-11-30T04:46:55.724Z,6.00
2022-11-30T04:49:22.414Z,5.67
2022-11-30T04:51:49.040Z,5.67
2022-11-30T04:54:15.684Z,5.80
2022-11-30T04:56:42.332Z,5.33
2022-11-30T04:59:11.131Z,5.03
2022-11-30T05:01:37.867Z,5.20
2022-11-30T05:04:06.855Z,5.40
2022-11-30T05:06:33.571Z,5.40
2022-11-30T05:09:02.742Z,6.03
2022-11-30T05:11:31.599Z,5.40
2022-11-30T05:13:58.245Z,6.00
2022-11-30T05:16:24.887Z,5.67
2022-11-30T05:18:53.743Z,5.97
2022-11-30T05:21:23.027Z,5.40
2022-11-30T05:23:52.321Z,5.73
2022-11-30T05:26:18.994Z,5.10
2022-11-30T05:28:45.616Z,5.13
2022-11-30T05:31:12.319Z,4.80
2022-11-30T05:33:41.212Z,7.30
2022-11-30T05:36:11.128Z,5.27
2022-11-30T05:38:37.975Z,5.93
2022-11-30T05:41:07.095Z,5.43
2022-11-30T05:43:35.949Z,5.23
2022-11-30T05:46:06.969Z,5.23
2022-11-30T05:48:33.839Z,5.68
2022-11-30T05:51:09.416Z,4.80
2022-11-30T05:53:38.715Z,5.27
2022-11-30T05:56:08.406Z,5.30
2022-11-30T05:58:38.193Z,6.03
2022-11-30T06:01:07.907Z,4.60
2022-11-30T06:03:35.785Z,6.53
2022-11-30T06:06:02.422Z,5.90
2022-11-30T06:08:29.216Z,5.30
2022-11-30T06:11:03.069Z,6.40
2022-11-30T06:13:32.985Z,5.33
2022-11-30T06:16:01.015Z,5.90
2022-11-30T06:18:30.479Z,6.55
2022-11-30T06:21:01.750Z,5.50
2022-11-30T06:23:30.934Z,5.77
2022-11-30T06:26:04.596Z,5.60
2022-11-30T06:28:31.265Z,5.83
2022-11-30T06:31:01.690Z,6.05
2022-11-30T06:33:28.963Z,5.80
2022-11-30T06:35:55.786Z,6.20
2022-11-30T06:38:25.903Z,5.90
2022-11-30T06:40:53.403Z,5.53
2022-11-30T06:43:20.307Z,5.90
2022-11-30T06:45:47.401Z,6.03
2022-11-30T06:48:16.809Z,5.82
2022-11-30T06:50:50.110Z,6.73
2022-11-30T06:53:17.124Z,5.90
2022-11-30T06:55:43.766Z,5.67
2022-11-30T06:58:11.158Z,7.13
2022-11-30T07:00:38.732Z,8.07
2022-11-30T07:03:06.057Z,5.93
2022-11-30T07:05:41.625Z,6.00
2022-11-30T07:08:13.054Z,5.77
2022-11-30T07:10:44.759Z,6.27
2022-11-30T07:13:13.192Z,7.00
2022-11-30T07:15:41.206Z,6.73
2022-11-30T07:18:10.786Z,6.53
2022-11-30T07:20:38.322Z,6.10
2022-11-30T07:23:27.834Z,6.00
2022-11-30T07:26:08.179Z,6.67
2022-11-30T07:28:37.031Z,5.43
2022-11-30T07:31:23.965Z,5.87
2022-11-30T07:33:55.790Z,5.50
2022-11-30T07:36:24.270Z,5.63
2022-11-30T07:38:58.241Z,6.33
2022-11-30T07:41:27.661Z,6.53
2022-11-30T07:43:56.715Z,5.30
2022-11-30T07:46:23.588Z,5.93
2022-11-30T07:48:50.420Z,5.03
2022-11-30T07:51:23.293Z,5.30
2022-11-30T07:53:50.277Z,5.53
2022-11-30T07:56:21.920Z,5.57
2022-11-30T07:58:50.194Z,5.10
2022-11-30T08:01:21.677Z,5.77
2022-11-30T08:03:49.531Z,5.77
2022-11-30T08:06:21.329Z,6.03
2022-11-30T08:08:52.264Z,5.90
2022-11-30T08:11:21.926Z,5.70
2022-11-30T08:13:51.413Z,6.30
2022-11-30T08:16:20.784Z,5.73
2022-11-30T08:18:50.360Z,6.30
2022-11-30T08:21:21.044Z,6.10
2022-11-30T08:23:56.471Z,5.70
2022-11-30T08:26:25.371Z,6.27
2022-11-30T08:28:57.252Z,5.97
2022-11-30T08:31:31.650Z,6.87
2022-11-30T08:34:02.881Z,6.20
2022-11-30T08:36:33.061Z,7.20
2022-11-30T08:39:04.823Z,6.73
2022-11-30T08:41:32.722Z,6.10
2022-11-30T08:44:04.525Z,6.97
2022-11-30T08:52:20.609Z,6.00
2022-11-30T08:57:39.691Z,7.70
2022-11-30T09:00:07.194Z,6.63
2022-11-30T09:02:33.888Z,6.17
2022-11-30T09:05:02.839Z,6.53
2022-11-30T09:07:31.962Z,8.53
2022-11-30T09:09:59.594Z,8.57
2022-11-30T09:12:28.538Z,7.33
2022-11-30T09:14:58.244Z,7.33
2022-11-30T09:17:25.719Z,7.57
2022-11-30T09:19:52.422Z,7.40
2022-11-30T09:22:19.315Z,7.20
2022-11-30T09:24:48.373Z,8.03
2022-11-30T09:27:15.332Z,7.80
2022-11-30T09:29:42.674Z,7.43
2022-11-30T09:32:09.523Z,6.80
2022-11-30T09:34:36.332Z,7.83
2022-11-30T09:37:03.395Z,8.00
2022-11-30T09:39:30.059Z,6.70
2022-11-30T09:42:31.874Z,7.80
2022-11-30T09:45:01.988Z,6.80
2022-11-30T09:48:08.058Z,7.43
2022-11-30T09:50:42.264Z,7.13
2022-11-30T09:53:39.330Z,7.07
2022-11-30T09:56:20.964Z,7.43
2022-11-30T09:58:54.504Z,7.17
2022-11-30T10:01:22.236Z,7.73
2022-11-30T10:03:51.691Z,8.47
2022-11-30T10:06:38.696Z,7.47
2022-11-30T10:09:57.544Z,8.03
2022-11-30T10:12:53.931Z,7.97
2022-11-30T10:15:57.577Z,7.97
2022-11-30T10:18:56.406Z,7.57
2022-11-30T10:21:38.212Z,8.07
2022-11-30T10:24:20.132Z,7.70
2022-11-30T10:27:04.468Z,7.53
2022-11-30T10:29:35.859Z,7.70
2022-11-30T10:32:18.449Z,7.77
2022-11-30T10:34:47.860Z,9.83
2022-11-30T10:37:20.231Z,8.23
2022-11-30T10:40:00.181Z,7.87
2022-11-30T10:42:46.921Z,9.77
2022-11-30T10:45:17.548Z,8.67
2022-11-30T10:47:52.160Z,8.27
2022-11-30T10:50:19.608Z,7.60
2022-11-30T10:52:53.537Z,9.40
2022-11-30T10:55:45.237Z,8.13
2022-11-30T10:58:28.992Z,7.80
2022-11-30T11:01:10.292Z,8.17
2022-11-30T11:03:37.480Z,7.87
2022-11-30T11:06:07.340Z,9.77
2022-11-30T11:08:34.087Z,8.07
2022-11-30T11:11:00.950Z,7.80
2022-11-30T11:13:44.377Z,9.53
2022-11-30T11:16:14.069Z,8.67
2022-11-30T11:18:57.523Z,7.80
2022-11-30T11:21:24.505Z,8.13
2022-11-30T11:23:56.878Z,8.23
2022-11-30T11:26:30.349Z,7.53
2022-11-30T11:29:00.498Z,7.67
2022-11-30T11:31:46.466Z,9.83
2022-11-30T11:34:31.827Z,7.70
2022-11-30T11:37:17.730Z,8.23
2022-11-30T11:40:00.015Z,9.73
2022-11-30T11:42:30.721Z,7.83
2022-11-30T11:45:01.870Z,8.57
2022-11-30T11:47:41.250Z,7.67
2022-11-30T11:50:49.941Z,8.17
2022-11-30T11:53:56.438Z,10.60
2022-11-30T11:56:28.146Z,9.23
2022-11-30T11:59:09.910Z,7.60
2022-11-30T12:01:49.284Z,7.97
2022-11-30T12:04:27.904Z,7.83
2022-11-30T12:06:55.918Z,8.45
2022-11-30T12:09:33.928Z,7.43
2022-11-30T12:12:00.641Z,8.20
2022-11-30T12:14:29.044Z,8.10
2022-11-30T12:17:14.154Z,7.57
2022-11-30T12:20:18.356Z,8.03
2022-11-30T12:22:57.294Z,7.20
2022-11-30T12:25:26.509Z,7.50
2022-11-30T12:27:59.999Z,7.57
2022-11-30T12:30:41.317Z,7.33
2022-11-30T12:33:12.533Z,7.33
2022-11-30T12:36:15.944Z,8.23
2022-11-30T12:38:52.693Z,6.93
2022-11-30T12:41:52.347Z,7.07
2022-11-30T12:44:28.595Z,8.00
2022-11-30T12:47:20.974Z,7.37
2022-11-30T12:49:56.869Z,7.33
2022-11-30T12:52:29.636Z,7.03
2022-11-30T12:55:25.564Z,7.50
2022-11-30T12:58:12.763Z,6.90
2022-11-30T13:01:09.776Z,6.03
2022-11-30T13:04:14.250Z,6.13
2022-11-30T13:06:47.853Z,7.40
2022-11-30T13:09:33.618Z,5.97
2022-11-30T13:12:17.285Z,7.20
2022-11-30T13:14:46.960Z,5.77
2022-11-30T13:17:20.528Z,6.90
2022-11-30T13:20:10.698Z,6.20
2022-11-30T13:23:00.523Z,6.30
2022-11-30T13:26:10.096Z,6.33
2022-11-30T13:28:43.082Z,5.67
2022-11-30T13:31:27.133Z,6.17
2022-11-30T13:33:53.790Z,5.80
2022-11-30T13:36:41.229Z,8.60
2022-11-30T13:39:13.938Z,6.33
2022-11-30T13:42:09.052Z,5.77
2022-11-30T13:44:43.353Z,5.27
2022-11-30T13:47:36.619Z,6.33
2022-11-30T13:50:40.170Z,5.67
2022-11-30T13:53:24.115Z,6.10
2022-11-30T13:56:02.733Z,5.73
2022-11-30T13:58:30.139Z,6.60
2022-11-30T14:01:21.198Z,5.13
2022-11-30T14:04:16.036Z,6.50
2022-11-30T14:06:42.662Z,5.80
2022-11-30T14:09:17.012Z,6.37
2022-11-30T14:11:45.434Z,5.47
2022-11-30T14:14:45.404Z,5.77
2022-11-30T14:17:20.082Z,5.80
2022-11-30T14:19:58.095Z,5.97
2022-11-30T14:22:29.347Z,5.37
2022-11-30T14:24:56.486Z,5.63
2022-11-30T14:27:25.995Z,5.27
2022-11-30T14:29:59.657Z,5.90
2022-11-30T14:32:26.663Z,5.30
2022-11-30T14:35:04.528Z,4.70
2022-11-30T14:37:44.723Z,4.80
2022-11-30T14:40:18.944Z,6.30
2022-11-30T14:43:15.893Z,5.30
2022-11-30T14:45:42.572Z,5.03
2022-11-30T14:48:17.767Z,6.90
2022-11-30T14:50:50.365Z,5.53
2022-11-30T14:53:38.905Z,5.25
2022-11-30T14:56:24.655Z,5.40
2022-11-30T14:59:29.062Z,5.37
2022-11-30T15:02:01.519Z,6.47
2022-11-30T15:04:31.641Z,4.77
2022-11-30T15:06:59.294Z,4.77
2022-11-30T15:09:30.530Z,4.67
2022-11-30T15:12:00.110Z,4.47
2022-11-30T15:14:26.854Z,4.63
2022-11-30T15:16:57.055Z,5.67
2022-11-30T15:19:26.223Z,4.60
2022-11-30T15:21:54.402Z,5.03
2022-11-30T15:24:23.981Z,4.93
2022-11-30T15:27:23.368Z,4.80
2022-11-30T15:29:59.050Z,4.73
2022-11-30T15:32:26.091Z,4.97
2022-11-30T15:34:56.525Z,5.10
2022-11-30T15:37:30.777Z,5.37
2022-11-30T15:39:59.709Z,4.60
2022-11-30T15:42:41.381Z,5.70
2022-11-30T15:45:14.593Z,4.70
2022-11-30T15:47:41.524Z,4.80
2022-11-30T15:50:42.180Z,5.05
2022-11-30T15:53:43.953Z,5.37
2022-11-30T15:56:23.410Z,5.37
2022-11-30T15:59:07.468Z,5.90
2022-11-30T16:02:08.703Z,5.20
2022-11-30T16:04:57.388Z,5.80
2022-11-30T16:07:31.899Z,6.37
2022-11-30T16:10:06.177Z,5.83
2022-11-30T16:12:33.185Z,6.23
2022-11-30T16:14:59.878Z,6.77
2022-11-30T16:17:28.193Z,6.33
2022-11-30T16:19:54.933Z,6.18
2022-11-30T16:22:26.299Z,5.77
2022-11-30T16:24:55.516Z,6.40
2022-11-30T16:27:29.359Z,5.40
2022-11-30T16:29:58.845Z,6.17
2022-11-30T16:32:25.607Z,6.60
2022-11-30T16:34:55.063Z,6.70
2022-11-30T16:37:21.729Z,6.13
2022-11-30T16:39:48.889Z,6.67
2022-11-30T16:42:18.317Z,6.13
2022-11-30T16:44:44.947Z,6.13
2022-11-30T16:47:16.296Z,7.77
2022-11-30T16:49:42.913Z,6.40
2022-11-30T16:52:15.346Z,5.87
2022-11-30T16:54:44.095Z,6.80
2022-11-30T16:57:13.079Z,6.33
2022-11-30T16:59:42.288Z,6.83
2022-11-30T17:02:18.972Z,6.50
2022-11-30T17:04:46.264Z,6.13
2022-11-30T17:07:13.349Z,6.13
2022-11-30T17:09:40.640Z,6.53
2022-11-30T17:12:09.521Z,7.80
2022-11-30T17:14:38.797Z,6.73
2022-11-30T17:17:05.619Z,6.47
2022-11-30T17:19:34.631Z,6.70
2022-11-30T17:22:01.441Z,7.17
2022-11-30T17:24:28.074Z,5.80
2022-11-30T17:26:54.703Z,7.03
2022-11-30T17:29:23.795Z,7.30
2022-11-30T17:31:50.754Z,6.83
2022-11-30T17:34:17.705Z,7.30
2022-11-30T17:36:45.030Z,6.17
2022-11-30T17:39:13.919Z,6.57
2022-11-30T17:41:42.859Z,7.53
2022-11-30T17:44:10.365Z,7.37
2022-11-30T17:46:42.967Z,7.77
2022-11-30T17:49:12.088Z,7.90
2022-11-30T17:51:38.905Z,8.00
2022-11-30T17:54:07.794Z,8.50
2022-11-30T17:56:36.947Z,8.53
2022-11-30T17:59:04.238Z,7.40
2022-11-30T18:01:33.072Z,7.37
2022-11-30T18:04:04.503Z,7.77
2022-11-30T18:06:36.512Z,6.83
2022-11-30T18:09:03.198Z,8.00
2022-11-30T18:11:30.025Z,8.17
2022-11-30T18:14:03.313Z,10.07
2022-11-30T18:16:32.399Z,7.93
2022-11-30T18:19:01.617Z,7.07
2022-11-30T18:21:30.804Z,8.17
2022-11-30T18:24:00.074Z,9.33
2022-11-30T18:26:29.537Z,7.60
2022-11-30T18:29:01.331Z,7.27
2022-11-30T18:31:31.265Z,7.77
2022-11-30T18:34:03.159Z,7.90
2022-11-30T18:36:30.846Z,8.03
2022-11-30T18:39:00.479Z,9.30
2022-11-30T18:41:28.539Z,8.50
2022-11-30T18:43:55.368Z,9.17
2022-11-30T18:46:24.750Z,8.43
2022-11-30T18:48:52.764Z,8.27
2022-11-30T18:51:22.610Z,7.43
2022-11-30T18:53:51.852Z,7.57
2022-11-30T18:56:22.770Z,7.43
2022-11-30T18:58:49.542Z,7.70
2022-11-30T19:01:19.895Z,7.03
2022-11-30T19:03:55.996Z,6.90
2022-11-30T19:06:28.328Z,9.43
2022-11-30T19:08:58.276Z,7.53
2022-11-30T19:11:27.627Z,7.97
2022-11-30T19:13:58.962Z,7.57
2022-11-30T19:16:27.440Z,7.30
2022-11-30T19:18:55.038Z,11.73
2022-11-30T19:21:26.910Z,8.20
2022-11-30T19:23:53.744Z,8.23
2022-11-30T19:26:20.499Z,7.57
2022-11-30T19:28:47.252Z,7.43
2022-11-30T19:31:16.126Z,6.73
2022-11-30T19:33:46.996Z,7.50
2022-11-30T19:36:19.573Z,7.33
2022-11-30T19:38:50.052Z,8.13
2022-11-30T19:41:17.117Z,7.83
2022-11-30T19:43:53.918Z,7.77
2022-11-30T19:46:25.616Z,7.93
2022-11-30T19:49:01.050Z,7.97
2022-11-30T19:51:31.588Z,7.93
2022-11-30T19:54:01.366Z,9.93
2022-11-30T19:56:34.457Z,10.20
2022-11-30T19:59:06.055Z,10.67
2022-11-30T20:01:38.043Z,11.80
2022-11-30T20:04:05.006Z,11.27
2022-11-30T20:06:36.123Z,9.57
2022-11-30T20:09:07.355Z,8.07
2022-11-30T20:11:34.540Z,9.33
2022-11-30T20:14:04.453Z,10.07
2022-11-30T20:16:33.828Z,10.07
2022-11-30T20:19:03.099Z,10.00
2022-11-30T20:21:35.097Z,10.93
2022-11-30T20:24:06.120Z,10.23
2022-11-30T20:26:36.063Z,8.97
2022-11-30T20:29:04.785Z,10.13
2022-11-30T20:31:33.929Z,8.00
2022-11-30T20:34:03.804Z,9.83
2022-11-30T20:36:30.590Z,9.30
2022-11-30T20:38:59.299Z,9.73
2022-11-30T20:41:27.198Z,9.80
2022-11-30T20:43:54.823Z,11.40
2022-11-30T20:46:24.559Z,9.77
2022-11-30T20:48:51.885Z,8.33
2022-11-30T20:51:32.706Z,10.47
2022-11-30T20:54:01.874Z,10.20
2022-11-30T20:56:33.945Z,9.47
2022-11-30T20:59:09.196Z,11.53
2022-11-30T21:01:36.045Z,9.73
2022-11-30T21:04:02.935Z,9.27
2022-11-30T21:06:30.570Z,9.63
2022-11-30T21:08:58.307Z,10.60
2022-11-30T21:11:25.942Z,9.57
2022-11-30T21:13:53.021Z,10.17
2022-11-30T21:16:27.163Z,10.70
2022-11-30T21:19:00.077Z,10.45
2022-11-30T21:21:32.462Z,10.80
2022-11-30T21:24:00.712Z,11.47
2022-11-30T21:26:35.956Z,11.03
2022-11-30T21:29:06.894Z,10.23
2022-11-30T21:31:38.492Z,10.70
2022-11-30T21:34:05.375Z,12.48
2022-11-30T21:36:32.606Z,10.27
2022-11-30T21:39:06.439Z,10.63
2022-11-30T21:41:40.269Z,10.23
2022-11-30T21:44:10.154Z,12.33
2022-11-30T21:46:37.135Z,12.03
2022-11-30T21:49:04.580Z,10.63
2022-11-30T21:51:32.105Z,10.25
2022-11-30T21:54:04.915Z,11.57
2022-11-30T21:56:34.173Z,11.77
2022-11-30T21:59:01.698Z,11.57
2022-11-30T22:01:30.007Z,12.00
2022-11-30T22:03:58.920Z,12.33
2022-11-30T22:06:29.301Z,11.20
2022-11-30T22:08:57.537Z,10.20
2022-11-30T22:11:24.550Z,11.00
2022-11-30T22:13:53.144Z,12.10
2022-11-30T22:16:20.911Z,12.67
2022-11-30T22:18:48.788Z,12.30
2022-11-30T22:21:17.821Z,11.53
2022-11-30T22:23:46.614Z,12.00
2022-11-30T22:26:19.704Z,11.90
2022-11-30T22:28:52.501Z,12.33
2022-11-30T22:31:24.484Z,14.50
2022-11-30T22:33:53.932Z,12.93
2022-11-30T22:36:25.417Z,13.03
2022-11-30T22:38:57.503Z,11.30
2022-11-30T22:41:26.922Z,12.80
2022-11-30T22:43:54.663Z,12.30
2022-11-30T22:46:32.517Z,13.17
2022-11-30T22:49:00.703Z,14.30
2022-11-30T22:51:28.898Z,11.43
2022-11-30T22:53:55.797Z,12.87
2022-11-30T22:56:28.693Z,10.30
2022-11-30T22:58:58.859Z,12.50
2022-11-30T23:01:38.303Z,13.43
2022-11-30T23:04:08.984Z,11.53
2022-11-30T23:06:42.254Z,12.27
2022-11-30T23:09:12.836Z,11.30
2022-11-30T23:11:39.738Z,11.47
2022-11-30T23:14:08.091Z,10.00
2022-11-30T23:16:36.417Z,11.57
2022-11-30T23:19:04.616Z,12.13
2022-11-30T23:21:40.395Z,9.43
2022-11-30T23:24:11.925Z,9.97
2022-11-30T23:26:39.065Z,9.67
2022-11-30T23:29:08.784Z,10.17
2022-11-30T23:31:37.602Z,9.87
2022-11-30T23:34:07.249Z,9.47
2022-11-30T23:36:35.341Z,8.77
2022-11-30T23:39:05.557Z,10.17
2022-11-30T23:41:33.813Z,8.07
2022-11-30T23:44:00.698Z,9.83
2022-11-30T23:46:27.553Z,9.90
2022-11-30T23:48:56.439Z,12.53
2022-11-30T23:51:26.778Z,11.77
2022-11-30T23:53:53.947Z,10.37
2022-11-30T23:56:22.131Z,8.93
2022-11-30T23:58:51.595Z,9.47
